sensor_id;sensor_type;location;lat;lon;timestamp;P1;P2;P0
82151;PMS5003;71721;47.904;-122.188;2023-09-08T00:01:58;5;5;
82151;PMS5003;71721;47.904;-122.188;2023-09-08T00:04:28;6;6;
82151;PMS5003;71721;47.904;-122.188;2023-09-08T00:06:48;4;4;
82151;PMS5003;71721;47.904;-122.188;2023-09-08T00:09:14;5;5;
82151;PMS5003;71721;47.904;-122.188;2023-09-08T00:11:39;7;5;
82151;PMS5003;71721;47.904;-122.188;2023-09-08T00:14:05;10;10;
82151;PMS5003;71721;47.904;-122.188;2023-09-08T00:16:30;5;5;
82151;PMS5003;71721;47.904;-122.188;2023-09-08T00:18:55;6;5;
82151;PMS5003;71721;47.904;-122.188;2023-09-08T00:21:21;5;5;
82151;PMS5003;71721;47.904;-122.188;2023-09-08T00:23:51;4;4;
82151;PMS5003;71721;47.904;-122.188;2023-09-08T00:26:11;6;5;
82151;PMS5003;71721;47.904;-122.188;2023-09-08T00:28:37;4;4;
82151;PMS5003;71721;47.904;-122.188;2023-09-08T00:31:02;5;5;
82151;PMS5003;71721;47.904;-122.188;2023-09-08T00:33:27;2;2;
82151;PMS5003;71721;47.904;-122.188;2023-09-08T00:35:52;5;5;
82151;PMS5003;71721;47.904;-122.188;2023-09-08T00:38:18;6;6;
82151;PMS5003;71721;47.904;-122.188;2023-09-08T00:40:43;5;5;
82151;PMS5003;71721;47.904;-122.188;2023-09-08T00:43:08;5;5;
82151;PMS5003;71721;47.904;-122.188;2023-09-08T00:45:34;6;5;
82151;PMS5003;71721;47.904;-122.188;2023-09-08T00:47:59;5;4;
82151;PMS5003;71721;47.904;-122.188;2023-09-08T00:50:24;5;5;
82151;PMS5003;71721;47.904;-122.188;2023-09-08T00:52:50;6;6;
82151;PMS5003;71721;47.904;-122.188;2023-09-08T00:55:15;6;6;
82151;PMS5003;71721;47.904;-122.188;2023-09-08T00:57:40;4;4;
82151;PMS5003;71721;47.904;-122.188;2023-09-08T01:00:06;6;6;
82151;PMS5003;71721;47.904;-122.188;2023-09-08T01:02:31;6;6;
82151;PMS5003;71721;47.904;-122.188;2023-09-08T01:04:56;6;5;
82151;PMS5003;71721;47.904;-122.188;2023-09-08T01:07:22;6;5;
82151;PMS5003;71721;47.904;-122.188;2023-09-08T01:09:47;5;4;
82151;PMS5003;71721;47.904;-122.188;2023-09-08T01:12:13;5;5;
82151;PMS5003;71721;47.904;-122.188;2023-09-08T01:14:37;4;4;
82151;PMS5003;71721;47.904;-122.188;2023-09-08T01:17:03;9;8;
82151;PMS5003;71721;47.904;-122.188;2023-09-08T01:19:28;5;5;
82151;PMS5003;71721;47.904;-122.188;2023-09-08T01:22:14;4;4;
82151;PMS5003;71721;47.904;-122.188;2023-09-08T01:24:26;5;5;
82151;PMS5003;71721;47.904;-122.188;2023-09-08T01:26:49;6;6;
82151;PMS5003;71721;47.904;-122.188;2023-09-08T01:29:09;5;4;
82151;PMS5003;71721;47.904;-122.188;2023-09-08T01:31:35;5;5;
82151;PMS5003;71721;47.904;-122.188;2023-09-08T01:34:00;3;3;
82151;PMS5003;71721;47.904;-122.188;2023-09-08T01:36:25;5;5;
82151;PMS5003;71721;47.904;-122.188;2023-09-08T01:38:50;4;4;
82151;PMS5003;71721;47.904;-122.188;2023-09-08T01:41:16;7;7;
82151;PMS5003;71721;47.904;-122.188;2023-09-08T01:43:41;5;4;
82151;PMS5003;71721;47.904;-122.188;2023-09-08T01:46:06;5;4;
82151;PMS5003;71721;47.904;-122.188;2023-09-08T01:48:32;7;7;
82151;PMS5003;71721;47.904;-122.188;2023-09-08T01:50:57;6;5;
82151;PMS5003;71721;47.904;-122.188;2023-09-08T01:53:23;5;5;
82151;PMS5003;71721;47.904;-122.188;2023-09-08T01:55:48;6;3;
82151;PMS5003;71721;47.904;-122.188;2023-09-08T01:58:13;7;7;
82151;PMS5003;71721;47.904;-122.188;2023-09-08T02:00:38;5;5;
82151;PMS5003;71721;47.904;-122.188;2023-09-08T02:03:04;4;4;
82151;PMS5003;71721;47.904;-122.188;2023-09-08T02:05:29;5;4;
82151;PMS5003;71721;47.904;-122.188;2023-09-08T02:07:54;6;5;
82151;PMS5003;71721;47.904;-122.188;2023-09-08T02:10:19;6;5;
82151;PMS5003;71721;47.904;-122.188;2023-09-08T02:12:45;6;6;
82151;PMS5003;71721;47.904;-122.188;2023-09-08T02:15:10;4;4;
82151;PMS5003;71721;47.904;-122.188;2023-09-08T02:17:36;6;6;
82151;PMS5003;71721;47.904;-122.188;2023-09-08T02:20:01;7;6;
82151;PMS5003;71721;47.904;-122.188;2023-09-08T02:22:26;6;6;
82151;PMS5003;71721;47.904;-122.188;2023-09-08T02:24:51;6;6;
82151;PMS5003;71721;47.904;-122.188;2023-09-08T02:27:16;4;4;
82151;PMS5003;71721;47.904;-122.188;2023-09-08T02:29:42;4;4;
82151;PMS5003;71721;47.904;-122.188;2023-09-08T02:32:07;5;5;
82151;PMS5003;71721;47.904;-122.188;2023-09-08T02:34:34;7;6;
82151;PMS5003;71721;47.904;-122.188;2023-09-08T02:36:58;8;8;
82151;PMS5003;71721;47.904;-122.188;2023-09-08T02:39:23;5;5;
82151;PMS5003;71721;47.904;-122.188;2023-09-08T02:41:48;5;4;
82151;PMS5003;71721;47.904;-122.188;2023-09-08T02:44:13;5;5;
82151;PMS5003;71721;47.904;-122.188;2023-09-08T02:46:39;7;6;
82151;PMS5003;71721;47.904;-122.188;2023-09-08T02:49:05;11;10;
82151;PMS5003;71721;47.904;-122.188;2023-09-08T02:51:29;11;11;
82151;PMS5003;71721;47.904;-122.188;2023-09-08T02:53:55;8;8;
82151;PMS5003;71721;47.904;-122.188;2023-09-08T02:56:20;5;5;
82151;PMS5003;71721;47.904;-122.188;2023-09-08T02:58:45;6;6;
82151;PMS5003;71721;47.904;-122.188;2023-09-08T03:01:11;8;8;
82151;PMS5003;71721;47.904;-122.188;2023-09-08T03:03:36;7;6;
82151;PMS5003;71721;47.904;-122.188;2023-09-08T03:06:01;7;7;
82151;PMS5003;71721;47.904;-122.188;2023-09-08T03:08:26;6;6;
82151;PMS5003;71721;47.904;-122.188;2023-09-08T03:10:55;7;7;
82151;PMS5003;71721;47.904;-122.188;2023-09-08T03:13:17;8;7;
82151;PMS5003;71721;47.904;-122.188;2023-09-08T03:15:43;5;5;
82151;PMS5003;71721;47.904;-122.188;2023-09-08T03:18:08;7;7;
82151;PMS5003;71721;47.904;-122.188;2023-09-08T03:20:33;8;8;
82151;PMS5003;71721;47.904;-122.188;2023-09-08T03:22:58;4;4;
82151;PMS5003;71721;47.904;-122.188;2023-09-08T03:25:24;6;6;
82151;PMS5003;71721;47.904;-122.188;2023-09-08T03:27:49;5;5;
82151;PMS5003;71721;47.904;-122.188;2023-09-08T03:30:14;7;7;
82151;PMS5003;71721;47.904;-122.188;2023-09-08T03:32:40;5;5;
82151;PMS5003;71721;47.904;-122.188;2023-09-08T03:35:06;6;6;
82151;PMS5003;71721;47.904;-122.188;2023-09-08T03:37:30;7;7;
82151;PMS5003;71721;47.904;-122.188;2023-09-08T03:39:56;8;7;
82151;PMS5003;71721;47.904;-122.188;2023-09-08T03:42:21;8;8;
82151;PMS5003;71721;47.904;-122.188;2023-09-08T03:44:46;5;5;
82151;PMS5003;71721;47.904;-122.188;2023-09-08T03:47:11;7;7;
82151;PMS5003;71721;47.904;-122.188;2023-09-08T03:49:37;7;7;
82151;PMS5003;71721;47.904;-122.188;2023-09-08T03:52:02;8;8;
82151;PMS5003;71721;47.904;-122.188;2023-09-08T03:54:28;6;6;
82151;PMS5003;71721;47.904;-122.188;2023-09-08T03:56:53;8;8;
82151;PMS5003;71721;47.904;-122.188;2023-09-08T03:59:18;10;9;
82151;PMS5003;71721;47.904;-122.188;2023-09-08T04:01:44;8;8;
82151;PMS5003;71721;47.904;-122.188;2023-09-08T04:04:09;7;7;
82151;PMS5003;71721;47.904;-122.188;2023-09-08T04:06:34;7;7;
82151;PMS5003;71721;47.904;-122.188;2023-09-08T04:09:00;8;8;
82151;PMS5003;71721;47.904;-122.188;2023-09-08T04:11:25;6;6;
82151;PMS5003;71721;47.904;-122.188;2023-09-08T04:13:50;6;6;
82151;PMS5003;71721;47.904;-122.188;2023-09-08T04:16:16;8;7;
82151;PMS5003;71721;47.904;-122.188;2023-09-08T04:18:41;7;7;
82151;PMS5003;71721;47.904;-122.188;2023-09-08T04:21:06;7;7;
82151;PMS5003;71721;47.904;-122.188;2023-09-08T04:23:32;7;7;
82151;PMS5003;71721;47.904;-122.188;2023-09-08T04:26:02;7;7;
82151;PMS5003;71721;47.904;-122.188;2023-09-08T04:28:24;10;10;
82151;PMS5003;71721;47.904;-122.188;2023-09-08T04:30:48;8;7;
82151;PMS5003;71721;47.904;-122.188;2023-09-08T04:33:13;9;8;
82151;PMS5003;71721;47.904;-122.188;2023-09-08T04:35:39;7;7;
82151;PMS5003;71721;47.904;-122.188;2023-09-08T04:38:04;7;7;
82151;PMS5003;71721;47.904;-122.188;2023-09-08T04:40:30;8;8;
82151;PMS5003;71721;47.904;-122.188;2023-09-08T04:42:55;8;8;
82151;PMS5003;71721;47.904;-122.188;2023-09-08T04:45:20;7;7;
82151;PMS5003;71721;47.904;-122.188;2023-09-08T04:47:46;8;7;
82151;PMS5003;71721;47.904;-122.188;2023-09-08T04:50:11;8;7;
82151;PMS5003;71721;47.904;-122.188;2023-09-08T04:52:36;9;9;
82151;PMS5003;71721;47.904;-122.188;2023-09-08T04:55:02;7;7;
82151;PMS5003;71721;47.904;-122.188;2023-09-08T04:57:27;8;7;
82151;PMS5003;71721;47.904;-122.188;2023-09-08T04:59:53;7;7;
82151;PMS5003;71721;47.904;-122.188;2023-09-08T05:02:18;9;7;
82151;PMS5003;71721;47.904;-122.188;2023-09-08T05:04:44;6;6;
82151;PMS5003;71721;47.904;-122.188;2023-09-08T05:07:09;8;7;
82151;PMS5003;71721;47.904;-122.188;2023-09-08T05:09:34;7;7;
82151;PMS5003;71721;47.904;-122.188;2023-09-08T05:12:00;7;7;
82151;PMS5003;71721;47.904;-122.188;2023-09-08T05:14:25;7;6;
82151;PMS5003;71721;47.904;-122.188;2023-09-08T05:16:51;7;7;
82151;PMS5003;71721;47.904;-122.188;2023-09-08T05:19:16;7;7;
82151;PMS5003;71721;47.904;-122.188;2023-09-08T05:21:42;7;7;
82151;PMS5003;71721;47.904;-122.188;2023-09-08T05:24:07;6;6;
82151;PMS5003;71721;47.904;-122.188;2023-09-08T05:26:32;6;6;
82151;PMS5003;71721;47.904;-122.188;2023-09-08T05:28:58;6;6;
82151;PMS5003;71721;47.904;-122.188;2023-09-08T05:31:28;7;7;
82151;PMS5003;71721;47.904;-122.188;2023-09-08T05:33:48;6;5;
82151;PMS5003;71721;47.904;-122.188;2023-09-08T05:36:14;7;7;
82151;PMS5003;71721;47.904;-122.188;2023-09-08T05:38:39;5;5;
82151;PMS5003;71721;47.904;-122.188;2023-09-08T05:41:04;6;6;
82151;PMS5003;71721;47.904;-122.188;2023-09-08T05:43:30;5;4;
82151;PMS5003;71721;47.904;-122.188;2023-09-08T05:45:55;6;6;
82151;PMS5003;71721;47.904;-122.188;2023-09-08T05:48:21;5;5;
82151;PMS5003;71721;47.904;-122.188;2023-09-08T05:50:46;7;6;
82151;PMS5003;71721;47.904;-122.188;2023-09-08T05:53:12;7;7;
82151;PMS5003;71721;47.904;-122.188;2023-09-08T05:55:37;5;4;
82151;PMS5003;71721;47.904;-122.188;2023-09-08T05:58:03;7;7;
82151;PMS5003;71721;47.904;-122.188;2023-09-08T06:00:28;4;4;
82151;PMS5003;71721;47.904;-122.188;2023-09-08T06:02:54;5;5;
82151;PMS5003;71721;47.904;-122.188;2023-09-08T06:05:19;6;6;
82151;PMS5003;71721;47.904;-122.188;2023-09-08T06:07:44;6;5;
82151;PMS5003;71721;47.904;-122.188;2023-09-08T06:10:10;5;5;
82151;PMS5003;71721;47.904;-122.188;2023-09-08T06:12:35;6;5;
82151;PMS5003;71721;47.904;-122.188;2023-09-08T06:15:01;4;4;
82151;PMS5003;71721;47.904;-122.188;2023-09-08T06:17:26;7;7;
82151;PMS5003;71721;47.904;-122.188;2023-09-08T06:19:51;5;5;
82151;PMS5003;71721;47.904;-122.188;2023-09-08T06:22:17;5;5;
82151;PMS5003;71721;47.904;-122.188;2023-09-08T06:24:42;3;3;
82151;PMS5003;71721;47.904;-122.188;2023-09-08T06:27:08;5;5;
82151;PMS5003;71721;47.904;-122.188;2023-09-08T06:29:33;6;6;
82151;PMS5003;71721;47.904;-122.188;2023-09-08T06:31:59;5;5;
82151;PMS5003;71721;47.904;-122.188;2023-09-08T06:34:24;7;7;
82151;PMS5003;71721;47.904;-122.188;2023-09-08T06:36:50;6;6;
82151;PMS5003;71721;47.904;-122.188;2023-09-08T06:39:15;5;5;
82151;PMS5003;71721;47.904;-122.188;2023-09-08T06:41:40;5;5;
82151;PMS5003;71721;47.904;-122.188;2023-09-08T06:44:06;6;5;
82151;PMS5003;71721;47.904;-122.188;2023-09-08T06:46:31;5;5;
82151;PMS5003;71721;47.904;-122.188;2023-09-08T06:48:57;5;5;
82151;PMS5003;71721;47.904;-122.188;2023-09-08T06:51:24;5;5;
82151;PMS5003;71721;47.904;-122.188;2023-09-08T06:53:53;5;5;
82151;PMS5003;71721;47.904;-122.188;2023-09-08T06:56:13;6;6;
82151;PMS5003;71721;47.904;-122.188;2023-09-08T06:58:39;9;7;
82151;PMS5003;71721;47.904;-122.188;2023-09-08T07:01:03;4;4;
82151;PMS5003;71721;47.904;-122.188;2023-09-08T07:03:29;5;5;
82151;PMS5003;71721;47.904;-122.188;2023-09-08T07:05:54;6;4;
82151;PMS5003;71721;47.904;-122.188;2023-09-08T07:08:19;7;7;
82151;PMS5003;71721;47.904;-122.188;2023-09-08T07:10:51;4;4;
82151;PMS5003;71721;47.904;-122.188;2023-09-08T07:13:10;5;5;
82151;PMS5003;71721;47.904;-122.188;2023-09-08T07:15:36;5;5;
82151;PMS5003;71721;47.904;-122.188;2023-09-08T07:18:01;6;5;
82151;PMS5003;71721;47.904;-122.188;2023-09-08T07:20:27;5;4;
82151;PMS5003;71721;47.904;-122.188;2023-09-08T07:22:52;6;6;
82151;PMS5003;71721;47.904;-122.188;2023-09-08T07:25:18;6;5;
82151;PMS5003;71721;47.904;-122.188;2023-09-08T07:27:43;4;4;
82151;PMS5003;71721;47.904;-122.188;2023-09-08T07:30:09;6;5;
82151;PMS5003;71721;47.904;-122.188;2023-09-08T07:32:34;5;5;
82151;PMS5003;71721;47.904;-122.188;2023-09-08T07:34:59;5;5;
82151;PMS5003;71721;47.904;-122.188;2023-09-08T07:37:25;6;6;
82151;PMS5003;71721;47.904;-122.188;2023-09-08T07:39:51;5;5;
82151;PMS5003;71721;47.904;-122.188;2023-09-08T07:42:16;4;4;
82151;PMS5003;71721;47.904;-122.188;2023-09-08T07:44:41;4;4;
82151;PMS5003;71721;47.904;-122.188;2023-09-08T07:47:07;5;5;
82151;PMS5003;71721;47.904;-122.188;2023-09-08T07:49:33;5;5;
82151;PMS5003;71721;47.904;-122.188;2023-09-08T07:52:03;5;5;
82151;PMS5003;71721;47.904;-122.188;2023-09-08T07:54:23;4;4;
82151;PMS5003;71721;47.904;-122.188;2023-09-08T07:56:48;4;4;
82151;PMS5003;71721;47.904;-122.188;2023-09-08T07:59:14;5;5;
82151;PMS5003;71721;47.904;-122.188;2023-09-08T08:01:39;6;6;
82151;PMS5003;71721;47.904;-122.188;2023-09-08T08:04:05;6;6;
82151;PMS5003;71721;47.904;-122.188;2023-09-08T08:06:30;6;6;
82151;PMS5003;71721;47.904;-122.188;2023-09-08T08:08:56;4;4;
82151;PMS5003;71721;47.904;-122.188;2023-09-08T08:11:21;6;6;
82151;PMS5003;71721;47.904;-122.188;2023-09-08T08:13:47;5;5;
82151;PMS5003;71721;47.904;-122.188;2023-09-08T08:16:12;7;6;
82151;PMS5003;71721;47.904;-122.188;2023-09-08T08:18:37;4;4;
82151;PMS5003;71721;47.904;-122.188;2023-09-08T08:21:03;5;4;
82151;PMS5003;71721;47.904;-122.188;2023-09-08T08:23:28;6;6;
82151;PMS5003;71721;47.904;-122.188;2023-09-08T08:25:54;4;4;
82151;PMS5003;71721;47.904;-122.188;2023-09-08T08:28:19;5;5;
82151;PMS5003;71721;47.904;-122.188;2023-09-08T08:30:45;6;6;
82151;PMS5003;71721;47.904;-122.188;2023-09-08T08:33:10;4;4;
82151;PMS5003;71721;47.904;-122.188;2023-09-08T08:35:35;4;4;
82151;PMS5003;71721;47.904;-122.188;2023-09-08T08:38:01;5;5;
82151;PMS5003;71721;47.904;-122.188;2023-09-08T08:40:26;7;6;
82151;PMS5003;71721;47.904;-122.188;2023-09-08T08:42:54;7;5;
82151;PMS5003;71721;47.904;-122.188;2023-09-08T08:45:17;7;7;
82151;PMS5003;71721;47.904;-122.188;2023-09-08T08:47:42;5;5;
82151;PMS5003;71721;47.904;-122.188;2023-09-08T08:50:09;5;5;
82151;PMS5003;71721;47.904;-122.188;2023-09-08T08:52:33;6;6;
82151;PMS5003;71721;47.904;-122.188;2023-09-08T08:54:59;5;5;
82151;PMS5003;71721;47.904;-122.188;2023-09-08T08:57:24;4;4;
82151;PMS5003;71721;47.904;-122.188;2023-09-08T08:59:50;5;5;
82151;PMS5003;71721;47.904;-122.188;2023-09-08T09:02:15;5;4;
82151;PMS5003;71721;47.904;-122.188;2023-09-08T09:04:41;6;6;
82151;PMS5003;71721;47.904;-122.188;2023-09-08T09:07:07;4;4;
82151;PMS5003;71721;47.904;-122.188;2023-09-08T09:09:32;6;6;
82151;PMS5003;71721;47.904;-122.188;2023-09-08T09:11:57;5;5;
82151;PMS5003;71721;47.904;-122.188;2023-09-08T09:14:24;6;6;
82151;PMS5003;71721;47.904;-122.188;2023-09-08T09:16:48;7;7;
82151;PMS5003;71721;47.904;-122.188;2023-09-08T09:19:17;7;6;
82151;PMS5003;71721;47.904;-122.188;2023-09-08T09:21:41;6;6;
82151;PMS5003;71721;47.904;-122.188;2023-09-08T09:24:04;8;8;
82151;PMS5003;71721;47.904;-122.188;2023-09-08T09:26:30;6;6;
82151;PMS5003;71721;47.904;-122.188;2023-09-08T09:28:55;7;7;
82151;PMS5003;71721;47.904;-122.188;2023-09-08T09:31:24;10;10;
82151;PMS5003;71721;47.904;-122.188;2023-09-08T09:33:46;10;10;
82151;PMS5003;71721;47.904;-122.188;2023-09-08T09:36:15;8;8;
82151;PMS5003;71721;47.904;-122.188;2023-09-08T09:38:37;8;8;
82151;PMS5003;71721;47.904;-122.188;2023-09-08T09:41:02;10;10;
82151;PMS5003;71721;47.904;-122.188;2023-09-08T09:43:28;5;5;
82151;PMS5003;71721;47.904;-122.188;2023-09-08T09:45:53;8;8;
82151;PMS5003;71721;47.904;-122.188;2023-09-08T09:48:19;9;8;
82151;PMS5003;71721;47.904;-122.188;2023-09-08T09:50:44;7;7;
82151;PMS5003;71721;47.904;-122.188;2023-09-08T09:53:10;8;7;
82151;PMS5003;71721;47.904;-122.188;2023-09-08T09:55:36;7;7;
82151;PMS5003;71721;47.904;-122.188;2023-09-08T09:58:00;7;7;
82151;PMS5003;71721;47.904;-122.188;2023-09-08T10:00:26;9;9;
82151;PMS5003;71721;47.904;-122.188;2023-09-08T10:02:51;8;8;
82151;PMS5003;71721;47.904;-122.188;2023-09-08T10:05:17;5;5;
82151;PMS5003;71721;47.904;-122.188;2023-09-08T10:07:42;9;8;
82151;PMS5003;71721;47.904;-122.188;2023-09-08T10:10:08;9;9;
82151;PMS5003;71721;47.904;-122.188;2023-09-08T10:12:33;7;7;
82151;PMS5003;71721;47.904;-122.188;2023-09-08T10:14:58;8;8;
82151;PMS5003;71721;47.904;-122.188;2023-09-08T10:17:24;6;6;
82151;PMS5003;71721;47.904;-122.188;2023-09-08T10:19:49;9;9;
82151;PMS5003;71721;47.904;-122.188;2023-09-08T10:22:15;8;8;
82151;PMS5003;71721;47.904;-122.188;2023-09-08T10:24:40;8;8;
82151;PMS5003;71721;47.904;-122.188;2023-09-08T10:27:07;10;9;
82151;PMS5003;71721;47.904;-122.188;2023-09-08T10:29:31;9;9;
82151;PMS5003;71721;47.904;-122.188;2023-09-08T10:31:57;11;10;
82151;PMS5003;71721;47.904;-122.188;2023-09-08T10:34:23;9;9;
82151;PMS5003;71721;47.904;-122.188;2023-09-08T10:36:47;8;8;
82151;PMS5003;71721;47.904;-122.188;2023-09-08T10:39:29;10;10;
82151;PMS5003;71721;47.904;-122.188;2023-09-08T10:41:38;8;8;
82151;PMS5003;71721;47.904;-122.188;2023-09-08T10:44:07;8;8;
82151;PMS5003;71721;47.904;-122.188;2023-09-08T10:46:30;8;8;
82151;PMS5003;71721;47.904;-122.188;2023-09-08T10:48:55;7;7;
82151;PMS5003;71721;47.904;-122.188;2023-09-08T10:51:20;8;8;
82151;PMS5003;71721;47.904;-122.188;2023-09-08T10:53:46;10;9;
82151;PMS5003;71721;47.904;-122.188;2023-09-08T10:56:10;8;8;
82151;PMS5003;71721;47.904;-122.188;2023-09-08T10:58:37;8;8;
82151;PMS5003;71721;47.904;-122.188;2023-09-08T11:01:02;8;7;
82151;PMS5003;71721;47.904;-122.188;2023-09-08T11:03:27;10;9;
82151;PMS5003;71721;47.904;-122.188;2023-09-08T11:05:52;8;8;
82151;PMS5003;71721;47.904;-122.188;2023-09-08T11:08:18;8;8;
82151;PMS5003;71721;47.904;-122.188;2023-09-08T11:10:43;7;7;
82151;PMS5003;71721;47.904;-122.188;2023-09-08T11:13:09;8;8;
82151;PMS5003;71721;47.904;-122.188;2023-09-08T11:15:34;9;9;
82151;PMS5003;71721;47.904;-122.188;2023-09-08T11:18:04;6;6;
82151;PMS5003;71721;47.904;-122.188;2023-09-08T11:20:26;10;9;
82151;PMS5003;71721;47.904;-122.188;2023-09-08T11:22:50;10;9;
82151;PMS5003;71721;47.904;-122.188;2023-09-08T11:25:16;11;11;
82151;PMS5003;71721;47.904;-122.188;2023-09-08T11:27:41;10;8;
82151;PMS5003;71721;47.904;-122.188;2023-09-08T11:30:08;9;9;
82151;PMS5003;71721;47.904;-122.188;2023-09-08T11:32:33;9;9;
82151;PMS5003;71721;47.904;-122.188;2023-09-08T11:35:01;8;8;
82151;PMS5003;71721;47.904;-122.188;2023-09-08T11:37:24;7;7;
82151;PMS5003;71721;47.904;-122.188;2023-09-08T11:39:49;9;9;
82151;PMS5003;71721;47.904;-122.188;2023-09-08T11:42:15;8;8;
82151;PMS5003;71721;47.904;-122.188;2023-09-08T11:44:39;8;8;
82151;PMS5003;71721;47.904;-122.188;2023-09-08T11:47:06;9;9;
82151;PMS5003;71721;47.904;-122.188;2023-09-08T11:49:35;8;8;
82151;PMS5003;71721;47.904;-122.188;2023-09-08T11:51:56;8;8;
82151;PMS5003;71721;47.904;-122.188;2023-09-08T11:54:21;9;9;
82151;PMS5003;71721;47.904;-122.188;2023-09-08T11:56:46;9;9;
82151;PMS5003;71721;47.904;-122.188;2023-09-08T11:59:13;10;9;
82151;PMS5003;71721;47.904;-122.188;2023-09-08T12:01:38;13;13;
82151;PMS5003;71721;47.904;-122.188;2023-09-08T12:04:04;7;7;
82151;PMS5003;71721;47.904;-122.188;2023-09-08T12:06:29;12;11;
82151;PMS5003;71721;47.904;-122.188;2023-09-08T12:08:55;9;8;
82151;PMS5003;71721;47.904;-122.188;2023-09-08T12:11:20;8;8;
82151;PMS5003;71721;47.904;-122.188;2023-09-08T12:13:45;11;11;
82151;PMS5003;71721;47.904;-122.188;2023-09-08T12:16:36;8;8;
82151;PMS5003;71721;47.904;-122.188;2023-09-08T12:18:37;9;9;
82151;PMS5003;71721;47.904;-122.188;2023-09-08T12:21:03;11;10;
82151;PMS5003;71721;47.904;-122.188;2023-09-08T12:23:27;10;10;
82151;PMS5003;71721;47.904;-122.188;2023-09-08T12:25:53;10;9;
82151;PMS5003;71721;47.904;-122.188;2023-09-08T12:28:19;9;9;
82151;PMS5003;71721;47.904;-122.188;2023-09-08T12:30:44;10;9;
82151;PMS5003;71721;47.904;-122.188;2023-09-08T12:33:09;8;7;
82151;PMS5003;71721;47.904;-122.188;2023-09-08T12:35:35;9;8;
82151;PMS5003;71721;47.904;-122.188;2023-09-08T12:38:01;10;10;
82151;PMS5003;71721;47.904;-122.188;2023-09-08T12:40:26;6;6;
82151;PMS5003;71721;47.904;-122.188;2023-09-08T12:42:51;7;7;
82151;PMS5003;71721;47.904;-122.188;2023-09-08T12:45:17;6;6;
82151;PMS5003;71721;47.904;-122.188;2023-09-08T12:47:43;6;5;
82151;PMS5003;71721;47.904;-122.188;2023-09-08T12:50:08;7;6;
82151;PMS5003;71721;47.904;-122.188;2023-09-08T12:52:33;8;8;
82151;PMS5003;71721;47.904;-122.188;2023-09-08T12:54:59;8;8;
82151;PMS5003;71721;47.904;-122.188;2023-09-08T12:57:24;8;7;
82151;PMS5003;71721;47.904;-122.188;2023-09-08T12:59:50;8;8;
82151;PMS5003;71721;47.904;-122.188;2023-09-08T13:02:16;6;6;
82151;PMS5003;71721;47.904;-122.188;2023-09-08T13:04:41;7;7;
82151;PMS5003;71721;47.904;-122.188;2023-09-08T13:07:07;7;7;
82151;PMS5003;71721;47.904;-122.188;2023-09-08T13:09:32;6;6;
82151;PMS5003;71721;47.904;-122.188;2023-09-08T13:11:58;6;6;
82151;PMS5003;71721;47.904;-122.188;2023-09-08T13:14:28;6;6;
82151;PMS5003;71721;47.904;-122.188;2023-09-08T13:16:49;6;6;
82151;PMS5003;71721;47.904;-122.188;2023-09-08T13:19:14;7;7;
82151;PMS5003;71721;47.904;-122.188;2023-09-08T13:21:40;6;6;
82151;PMS5003;71721;47.904;-122.188;2023-09-08T13:24:06;6;6;
82151;PMS5003;71721;47.904;-122.188;2023-09-08T13:26:31;7;7;
82151;PMS5003;71721;47.904;-122.188;2023-09-08T13:28:56;5;5;
82151;PMS5003;71721;47.904;-122.188;2023-09-08T13:31:22;6;6;
82151;PMS5003;71721;47.904;-122.188;2023-09-08T13:33:47;5;5;
82151;PMS5003;71721;47.904;-122.188;2023-09-08T13:36:13;5;4;
82151;PMS5003;71721;47.904;-122.188;2023-09-08T13:38:38;7;7;
82151;PMS5003;71721;47.904;-122.188;2023-09-08T13:41:04;7;7;
82151;PMS5003;71721;47.904;-122.188;2023-09-08T13:43:29;7;7;
82151;PMS5003;71721;47.904;-122.188;2023-09-08T13:45:55;5;5;
82151;PMS5003;71721;47.904;-122.188;2023-09-08T13:48:21;7;7;
82151;PMS5003;71721;47.904;-122.188;2023-09-08T13:50:46;6;6;
82151;PMS5003;71721;47.904;-122.188;2023-09-08T13:53:12;6;6;
82151;PMS5003;71721;47.904;-122.188;2023-09-08T13:55:37;5;5;
82151;PMS5003;71721;47.904;-122.188;2023-09-08T13:58:03;8;8;
82151;PMS5003;71721;47.904;-122.188;2023-09-08T14:00:28;8;8;
82151;PMS5003;71721;47.904;-122.188;2023-09-08T14:02:54;7;7;
82151;PMS5003;71721;47.904;-122.188;2023-09-08T14:05:19;8;7;
82151;PMS5003;71721;47.904;-122.188;2023-09-08T14:07:45;8;8;
82151;PMS5003;71721;47.904;-122.188;2023-09-08T14:10:10;6;6;
82151;PMS5003;71721;47.904;-122.188;2023-09-08T14:12:36;7;7;
82151;PMS5003;71721;47.904;-122.188;2023-09-08T14:15:01;7;7;
82151;PMS5003;71721;47.904;-122.188;2023-09-08T14:17:28;5;5;
82151;PMS5003;71721;47.904;-122.188;2023-09-08T14:19:53;9;8;
82151;PMS5003;71721;47.904;-122.188;2023-09-08T14:22:18;9;8;
82151;PMS5003;71721;47.904;-122.188;2023-09-08T14:24:44;7;7;
82151;PMS5003;71721;47.904;-122.188;2023-09-08T14:27:09;6;6;
82151;PMS5003;71721;47.904;-122.188;2023-09-08T14:29:35;10;9;
82151;PMS5003;71721;47.904;-122.188;2023-09-08T14:32:00;11;11;
82151;PMS5003;71721;47.904;-122.188;2023-09-08T14:34:26;13;13;
82151;PMS5003;71721;47.904;-122.188;2023-09-08T14:36:51;11;11;
82151;PMS5003;71721;47.904;-122.188;2023-09-08T14:39:17;10;10;
82151;PMS5003;71721;47.904;-122.188;2023-09-08T14:41:42;11;10;
82151;PMS5003;71721;47.904;-122.188;2023-09-08T14:44:07;12;12;
82151;PMS5003;71721;47.904;-122.188;2023-09-08T14:46:32;11;11;
82151;PMS5003;71721;47.904;-122.188;2023-09-08T14:48:58;15;14;
82151;PMS5003;71721;47.904;-122.188;2023-09-08T14:51:23;16;16;
82151;PMS5003;71721;47.904;-122.188;2023-09-08T14:53:49;15;14;
82151;PMS5003;71721;47.904;-122.188;2023-09-08T14:56:15;16;16;
82151;PMS5003;71721;47.904;-122.188;2023-09-08T14:58:40;14;13;
82151;PMS5003;71721;47.904;-122.188;2023-09-08T15:01:07;14;12;
82151;PMS5003;71721;47.904;-122.188;2023-09-08T15:03:31;16;15;
82151;PMS5003;71721;47.904;-122.188;2023-09-08T15:05:57;11;11;
82151;PMS5003;71721;47.904;-122.188;2023-09-08T15:08:23;15;15;
82151;PMS5003;71721;47.904;-122.188;2023-09-08T15:10:48;12;12;
82151;PMS5003;71721;47.904;-122.188;2023-09-08T15:13:13;9;9;
82151;PMS5003;71721;47.904;-122.188;2023-09-08T15:15:39;11;11;
82151;PMS5003;71721;47.904;-122.188;2023-09-08T15:18:04;11;10;
82151;PMS5003;71721;47.904;-122.188;2023-09-08T15:20:30;11;10;
82151;PMS5003;71721;47.904;-122.188;2023-09-08T15:22:55;10;9;
82151;PMS5003;71721;47.904;-122.188;2023-09-08T15:25:20;9;9;
82151;PMS5003;71721;47.904;-122.188;2023-09-08T15:27:46;7;7;
82151;PMS5003;71721;47.904;-122.188;2023-09-08T15:30:13;8;8;
82151;PMS5003;71721;47.904;-122.188;2023-09-08T15:32:37;10;9;
82151;PMS5003;71721;47.904;-122.188;2023-09-08T15:35:02;10;10;
82151;PMS5003;71721;47.904;-122.188;2023-09-08T15:37:28;11;11;
82151;PMS5003;71721;47.904;-122.188;2023-09-08T15:39:53;10;10;
82151;PMS5003;71721;47.904;-122.188;2023-09-08T15:42:19;10;10;
82151;PMS5003;71721;47.904;-122.188;2023-09-08T15:44:44;12;11;